sensor_id;sensor_type;location;lat;lon;timestamp;P1;durP1;ratioP1;P2;durP2;ratioP2
72201;SDS011;60105;54.956;73.412;2023-04-24T00:01:30;18.03;;;6.73;;
72201;SDS011;60105;54.956;73.412;2023-04-24T00:04:32;8.85;;;5.75;;
72201;SDS011;60105;54.956;73.412;2023-04-24T00:07:33;8.43;;;4.93;;
72201;SDS011;60105;54.956;73.412;2023-04-24T00:10:35;9.85;;;6.00;;
72201;SDS011;60105;54.956;73.412;2023-04-24T00:13:37;9.73;;;5.05;;
72201;SDS011;60105;54.956;73.412;2023-04-24T00:16:38;14.70;;;6.47;;
72201;SDS011;60105;54.956;73.412;2023-04-24T00:19:40;13.40;;;6.57;;
72201;SDS011;60105;54.956;73.412;2023-04-24T00:22:41;13.53;;;5.87;;
72201;SDS011;60105;54.956;73.412;2023-04-24T00:25:43;10.63;;;6.70;;
72201;SDS011;60105;54.956;73.412;2023-04-24T00:28:44;10.50;;;6.47;;
72201;SDS011;60105;54.956;73.412;2023-04-24T00:32:26;11.32;;;6.62;;
72201;SDS011;60105;54.956;73.412;2023-04-24T00:35:27;13.30;;;5.68;;
72201;SDS011;60105;54.956;73.412;2023-04-24T00:38:30;14.37;;;5.93;;
72201;SDS011;60105;54.956;73.412;2023-04-24T00:41:31;14.77;;;6.63;;
72201;SDS011;60105;54.956;73.412;2023-04-24T00:44:33;13.63;;;6.30;;
72201;SDS011;60105;54.956;73.412;2023-04-24T00:47:41;8.60;;;6.50;;
72201;SDS011;60105;54.956;73.412;2023-04-24T00:50:52;12.65;;;6.40;;
72201;SDS011;60105;54.956;73.412;2023-04-24T00:53:54;18.38;;;7.15;;
72201;SDS011;60105;54.956;73.412;2023-04-24T01:00:32;16.25;;;7.90;;
72201;SDS011;60105;54.956;73.412;2023-04-24T01:03:33;20.05;;;8.00;;
72201;SDS011;60105;54.956;73.412;2023-04-24T01:07:26;14.32;;;8.05;;
72201;SDS011;60105;54.956;73.412;2023-04-24T01:10:33;15.65;;;9.02;;
72201;SDS011;60105;54.956;73.412;2023-04-24T01:13:37;26.80;;;12.97;;
72201;SDS011;60105;54.956;73.412;2023-04-24T01:16:38;26.52;;;12.10;;
72201;SDS011;60105;54.956;73.412;2023-04-24T01:19:40;24.87;;;12.83;;
72201;SDS011;60105;54.956;73.412;2023-04-24T01:22:41;22.13;;;12.65;;
72201;SDS011;60105;54.956;73.412;2023-04-24T01:25:43;23.87;;;12.67;;
72201;SDS011;60105;54.956;73.412;2023-04-24T01:28:55;22.70;;;12.50;;
72201;SDS011;60105;54.956;73.412;2023-04-24T01:35:27;19.33;;;10.57;;
72201;SDS011;60105;54.956;73.412;2023-04-24T01:38:38;25.07;;;11.00;;
72201;SDS011;60105;54.956;73.412;2023-04-24T01:41:40;23.83;;;9.43;;
72201;SDS011;60105;54.956;73.412;2023-04-24T01:44:41;18.73;;;9.93;;
72201;SDS011;60105;54.956;73.412;2023-04-24T01:47:43;18.05;;;10.07;;
72201;SDS011;60105;54.956;73.412;2023-04-24T01:50:45;16.08;;;9.38;;
72201;SDS011;60105;54.956;73.412;2023-04-24T01:53:47;19.63;;;9.13;;
72201;SDS011;60105;54.956;73.412;2023-04-24T01:57:26;18.85;;;8.95;;
72201;SDS011;60105;54.956;73.412;2023-04-24T02:00:38;15.15;;;8.68;;
72201;SDS011;60105;54.956;73.412;2023-04-24T02:03:39;20.38;;;9.27;;
72201;SDS011;60105;54.956;73.412;2023-04-24T02:07:26;18.78;;;8.60;;
72201;SDS011;60105;54.956;73.412;2023-04-24T02:10:27;15.43;;;8.48;;
72201;SDS011;60105;54.956;73.412;2023-04-24T02:13:29;15.83;;;8.13;;
72201;SDS011;60105;54.956;73.412;2023-04-24T02:16:30;15.88;;;8.80;;
72201;SDS011;60105;54.956;73.412;2023-04-24T02:19:36;15.50;;;7.60;;
72201;SDS011;60105;54.956;73.412;2023-04-24T02:22:37;15.18;;;7.50;;
72201;SDS011;60105;54.956;73.412;2023-04-24T02:25:39;14.70;;;6.40;;
72201;SDS011;60105;54.956;73.412;2023-04-24T02:28:50;14.05;;;7.78;;
72201;SDS011;60105;54.956;73.412;2023-04-24T02:32:26;15.82;;;8.13;;
72201;SDS011;60105;54.956;73.412;2023-04-24T02:35:27;15.17;;;8.40;;
72201;SDS011;60105;54.956;73.412;2023-04-24T02:38:33;18.83;;;8.02;;
72201;SDS011;60105;54.956;73.412;2023-04-24T02:41:35;18.07;;;8.10;;
72201;SDS011;60105;54.956;73.412;2023-04-24T02:44:36;11.57;;;8.35;;
72201;SDS011;60105;54.956;73.412;2023-04-24T02:47:48;15.80;;;8.05;;
72201;SDS011;60105;54.956;73.412;2023-04-24T02:50:49;24.08;;;9.40;;
72201;SDS011;60105;54.956;73.412;2023-04-24T02:53:51;16.13;;;8.25;;
72201;SDS011;60105;54.956;73.412;2023-04-24T02:57:26;21.90;;;7.72;;
72201;SDS011;60105;54.956;73.412;2023-04-24T03:00:27;20.00;;;8.50;;
72201;SDS011;60105;54.956;73.412;2023-04-24T03:03:28;17.57;;;8.10;;
72201;SDS011;60105;54.956;73.412;2023-04-24T03:06:30;17.70;;;8.20;;
72201;SDS011;60105;54.956;73.412;2023-04-24T03:09:34;19.02;;;7.75;;
72201;SDS011;60105;54.956;73.412;2023-04-24T03:12:45;14.10;;;6.50;;
72201;SDS011;60105;54.956;73.412;2023-04-24T03:15:48;17.52;;;7.60;;
72201;SDS011;60105;54.956;73.412;2023-04-24T03:18:49;14.57;;;7.43;;
72201;SDS011;60105;54.956;73.412;2023-04-24T03:22:26;16.80;;;7.07;;
72201;SDS011;60105;54.956;73.412;2023-04-24T03:25:27;17.83;;;7.60;;
72201;SDS011;60105;54.956;73.412;2023-04-24T03:28:29;18.43;;;9.13;;
72201;SDS011;60105;54.956;73.412;2023-04-24T03:32:26;17.34;;;9.64;;
72201;SDS011;60105;54.956;73.412;2023-04-24T03:35:27;27.17;;;9.82;;
72201;SDS011;60105;54.956;73.412;2023-04-24T03:38:29;18.90;;;9.87;;
72201;SDS011;60105;54.956;73.412;2023-04-24T03:41:38;16.45;;;10.07;;
72201;SDS011;60105;54.956;73.412;2023-04-24T03:44:50;21.88;;;10.63;;
72201;SDS011;60105;54.956;73.412;2023-04-24T03:47:57;34.63;;;13.30;;
72201;SDS011;60105;54.956;73.412;2023-04-24T03:50:59;27.77;;;13.40;;
72201;SDS011;60105;54.956;73.412;2023-04-24T03:54:00;28.43;;;13.90;;
72201;SDS011;60105;54.956;73.412;2023-04-24T04:00:39;21.50;;;11.05;;
72201;SDS011;60105;54.956;73.412;2023-04-24T04:04:07;27.07;;;11.40;;
72201;SDS011;60105;54.956;73.412;2023-04-24T04:10:27;21.45;;;10.80;;
72201;SDS011;60105;54.956;73.412;2023-04-24T04:13:28;25.23;;;12.37;;
72201;SDS011;60105;54.956;73.412;2023-04-24T04:16:30;32.00;;;10.70;;
72201;SDS011;60105;54.956;73.412;2023-04-24T04:19:37;23.27;;;10.57;;
72201;SDS011;60105;54.956;73.412;2023-04-24T04:22:38;27.13;;;8.15;;
72201;SDS011;60105;54.956;73.412;2023-04-24T04:25:43;22.02;;;9.85;;
72201;SDS011;60105;54.956;73.412;2023-04-24T04:28:51;18.20;;;8.73;;
72201;SDS011;60105;54.956;73.412;2023-04-24T04:32:26;23.15;;;9.70;;
72201;SDS011;60105;54.956;73.412;2023-04-24T04:35:33;30.48;;;11.93;;
72201;SDS011;60105;54.956;73.412;2023-04-24T04:38:34;27.30;;;9.82;;
72201;SDS011;60105;54.956;73.412;2023-04-24T04:41:54;18.04;;;8.98;;
72201;SDS011;60105;54.956;73.412;2023-04-24T04:45:00;22.67;;;8.63;;
72201;SDS011;60105;54.956;73.412;2023-04-24T04:48:18;17.20;;;7.57;;
72201;SDS011;60105;54.956;73.412;2023-04-24T04:51:20;16.45;;;7.88;;
72201;SDS011;60105;54.956;73.412;2023-04-24T04:54:21;20.00;;;7.88;;
72201;SDS011;60105;54.956;73.412;2023-04-24T04:57:33;12.90;;;6.33;;
72201;SDS011;60105;54.956;73.412;2023-04-24T05:00:40;11.00;;;7.13;;
72201;SDS011;60105;54.956;73.412;2023-04-24T05:04:00;18.33;;;6.72;;
72201;SDS011;60105;54.956;73.412;2023-04-24T05:10:29;16.47;;;6.40;;
72201;SDS011;60105;54.956;73.412;2023-04-24T05:13:40;16.35;;;7.60;;
72201;SDS011;60105;54.956;73.412;2023-04-24T05:17:26;10.75;;;6.65;;
72201;SDS011;60105;54.956;73.412;2023-04-24T05:20:31;19.08;;;7.47;;
72201;SDS011;60105;54.956;73.412;2023-04-24T05:23:33;19.77;;;7.83;;
72201;SDS011;60105;54.956;73.412;2023-04-24T05:27:26;21.18;;;7.68;;
72201;SDS011;60105;54.956;73.412;2023-04-24T05:30:28;14.00;;;6.90;;
72201;SDS011;60105;54.956;73.412;2023-04-24T05:33:29;12.90;;;5.97;;
72201;SDS011;60105;54.956;73.412;2023-04-24T05:36:41;16.75;;;6.93;;
72201;SDS011;60105;54.956;73.412;2023-04-24T05:39:45;13.07;;;6.57;;
72201;SDS011;60105;54.956;73.412;2023-04-24T05:42:47;15.53;;;6.63;;
72201;SDS011;60105;54.956;73.412;2023-04-24T05:45:49;9.85;;;5.90;;
72201;SDS011;60105;54.956;73.412;2023-04-24T05:48:52;9.93;;;5.53;;
72201;SDS011;60105;54.956;73.412;2023-04-24T05:52:26;13.52;;;6.28;;
72201;SDS011;60105;54.956;73.412;2023-04-24T05:55:27;13.20;;;6.55;;
72201;SDS011;60105;54.956;73.412;2023-04-24T05:58:29;16.10;;;5.78;;
72201;SDS011;60105;54.956;73.412;2023-04-24T06:01:30;14.75;;;7.05;;
72201;SDS011;60105;54.956;73.412;2023-04-24T06:04:41;13.73;;;7.93;;
72201;SDS011;60105;54.956;73.412;2023-04-24T06:07:42;13.73;;;6.90;;
72201;SDS011;60105;54.956;73.412;2023-04-24T06:10:48;12.73;;;7.93;;
72201;SDS011;60105;54.956;73.412;2023-04-24T06:13:53;15.68;;;7.88;;
72201;SDS011;60105;54.956;73.412;2023-04-24T06:17:30;9.10;;;6.35;;
72201;SDS011;60105;54.956;73.412;2023-04-24T06:20:34;15.93;;;8.93;;
72201;SDS011;60105;54.956;73.412;2023-04-24T06:23:36;22.75;;;9.52;;
72201;SDS011;60105;54.956;73.412;2023-04-24T06:26:38;17.97;;;9.67;;
72201;SDS011;60105;54.956;73.412;2023-04-24T06:29:41;24.05;;;8.45;;
72201;SDS011;60105;54.956;73.412;2023-04-24T06:32:43;20.35;;;6.40;;
72201;SDS011;60105;54.956;73.412;2023-04-24T06:35:46;18.07;;;5.93;;
72201;SDS011;60105;54.956;73.412;2023-04-24T06:38:47;15.25;;;7.07;;
72201;SDS011;60105;54.956;73.412;2023-04-24T06:41:54;18.98;;;8.23;;
72201;SDS011;60105;54.956;73.412;2023-04-24T06:44:58;22.42;;;6.90;;
72201;SDS011;60105;54.956;73.412;2023-04-24T06:48:00;18.70;;;8.00;;
72201;SDS011;60105;54.956;73.412;2023-04-24T06:51:01;13.48;;;6.90;;
72201;SDS011;60105;54.956;73.412;2023-04-24T06:54:02;19.10;;;8.07;;
72201;SDS011;60105;54.956;73.412;2023-04-24T07:00:32;18.75;;;6.95;;
72201;SDS011;60105;54.956;73.412;2023-04-24T07:03:33;17.57;;;6.97;;
72201;SDS011;60105;54.956;73.412;2023-04-24T07:06:34;23.08;;;6.28;;
72201;SDS011;60105;54.956;73.412;2023-04-24T07:09:36;14.05;;;6.53;;
72201;SDS011;60105;54.956;73.412;2023-04-24T07:12:39;14.80;;;5.90;;
72201;SDS011;60105;54.956;73.412;2023-04-24T07:15:41;27.52;;;8.00;;
72201;SDS011;60105;54.956;73.412;2023-04-24T07:18:42;16.43;;;6.03;;
72201;SDS011;60105;54.956;73.412;2023-04-24T07:22:26;15.68;;;6.50;;
72201;SDS011;60105;54.956;73.412;2023-04-24T07:25:27;37.40;;;9.30;;
72201;SDS011;60105;54.956;73.412;2023-04-24T07:28:28;29.83;;;9.27;;
72201;SDS011;60105;54.956;73.412;2023-04-24T07:31:31;26.67;;;6.50;;
72201;SDS011;60105;54.956;73.412;2023-04-24T07:34:34;23.00;;;7.60;;
72201;SDS011;60105;54.956;73.412;2023-04-24T07:37:41;27.02;;;6.82;;
72201;SDS011;60105;54.956;73.412;2023-04-24T07:40:46;14.73;;;5.20;;
72201;SDS011;60105;54.956;73.412;2023-04-24T07:43:48;25.33;;;7.40;;
72201;SDS011;60105;54.956;73.412;2023-04-24T07:47:26;26.67;;;7.93;;
72201;SDS011;60105;54.956;73.412;2023-04-24T07:50:27;27.47;;;6.87;;
72201;SDS011;60105;54.956;73.412;2023-04-24T07:53:28;26.30;;;8.60;;
72201;SDS011;60105;54.956;73.412;2023-04-24T07:56:30;22.45;;;7.53;;
72201;SDS011;60105;54.956;73.412;2023-04-24T07:59:32;30.00;;;8.55;;
72201;SDS011;60105;54.956;73.412;2023-04-24T08:02:33;22.17;;;7.80;;
72201;SDS011;60105;54.956;73.412;2023-04-24T08:05:44;29.85;;;10.57;;
72201;SDS011;60105;54.956;73.412;2023-04-24T08:08:45;21.20;;;7.07;;
72201;SDS011;60105;54.956;73.412;2023-04-24T08:11:54;19.45;;;7.03;;
72201;SDS011;60105;54.956;73.412;2023-04-24T08:14:56;28.00;;;9.97;;
72201;SDS011;60105;54.956;73.412;2023-04-24T08:17:57;13.88;;;5.68;;
72201;SDS011;60105;54.956;73.412;2023-04-24T08:20:59;11.88;;;5.05;;
72201;SDS011;60105;54.956;73.412;2023-04-24T08:24:07;16.93;;;5.83;;
72201;SDS011;60105;54.956;73.412;2023-04-24T08:30:27;18.15;;;6.57;;
72201;SDS011;60105;54.956;73.412;2023-04-24T08:33:29;22.90;;;6.87;;
72201;SDS011;60105;54.956;73.412;2023-04-24T08:37:26;21.78;;;6.32;;
72201;SDS011;60105;54.956;73.412;2023-04-24T08:40:28;15.60;;;7.28;;
72201;SDS011;60105;54.956;73.412;2023-04-24T08:43:36;17.95;;;8.60;;
72201;SDS011;60105;54.956;73.412;2023-04-24T08:46:39;28.27;;;9.10;;
72201;SDS011;60105;54.956;73.412;2023-04-24T08:49:41;22.73;;;9.52;;
72201;SDS011;60105;54.956;73.412;2023-04-24T08:52:43;17.03;;;7.87;;
72201;SDS011;60105;54.956;73.412;2023-04-24T08:55:55;18.40;;;7.28;;
72201;SDS011;60105;54.956;73.412;2023-04-24T08:58:57;25.10;;;8.80;;
72201;SDS011;60105;54.956;73.412;2023-04-24T09:02:26;17.25;;;5.68;;
72201;SDS011;60105;54.956;73.412;2023-04-24T09:05:37;10.48;;;4.90;;
72201;SDS011;60105;54.956;73.412;2023-04-24T09:08:38;16.30;;;5.10;;
72201;SDS011;60105;54.956;73.412;2023-04-24T09:11:54;5.32;;;3.50;;
72201;SDS011;60105;54.956;73.412;2023-04-24T09:15:07;8.48;;;4.05;;
72201;SDS011;60105;54.956;73.412;2023-04-24T09:18:14;11.73;;;4.27;;
72201;SDS011;60105;54.956;73.412;2023-04-24T09:21:16;12.55;;;4.47;;
72201;SDS011;60105;54.956;73.412;2023-04-24T09:24:18;12.93;;;5.60;;
72201;SDS011;60105;54.956;73.412;2023-04-24T09:27:26;13.30;;;5.50;;
72201;SDS011;60105;54.956;73.412;2023-04-24T09:30:30;7.93;;;3.70;;
72201;SDS011;60105;54.956;73.412;2023-04-24T09:33:33;9.57;;;3.97;;
72201;SDS011;60105;54.956;73.412;2023-04-24T09:36:35;6.15;;;3.65;;
72201;SDS011;60105;54.956;73.412;2023-04-24T09:43:20;8.23;;;3.80;;
72201;SDS011;60105;54.956;73.412;2023-04-24T09:46:29;8.63;;;3.47;;
72201;SDS011;60105;54.956;73.412;2023-04-24T09:49:32;8.83;;;4.30;;
72201;SDS011;60105;54.956;73.412;2023-04-24T09:52:55;8.98;;;3.60;;
72201;SDS011;60105;54.956;73.412;2023-04-24T09:56:19;8.27;;;4.05;;
72201;SDS011;60105;54.956;73.412;2023-04-24T09:59:21;9.57;;;3.38;;
72201;SDS011;60105;54.956;73.412;2023-04-24T10:02:27;4.60;;;3.10;;
72201;SDS011;60105;54.956;73.412;2023-04-24T10:05:44;13.07;;;3.80;;
72201;SDS011;60105;54.956;73.412;2023-04-24T10:08:47;8.70;;;2.90;;
72201;SDS011;60105;54.956;73.412;2023-04-24T10:11:54;7.32;;;3.28;;
72201;SDS011;60105;54.956;73.412;2023-04-24T10:14:55;7.17;;;2.70;;
72201;SDS011;60105;54.956;73.412;2023-04-24T10:17:58;10.20;;;2.85;;
72201;SDS011;60105;54.956;73.412;2023-04-24T10:21:00;9.60;;;3.40;;
72201;SDS011;60105;54.956;73.412;2023-04-24T10:24:02;4.40;;;2.50;;
72201;SDS011;60105;54.956;73.412;2023-04-24T10:30:28;9.25;;;3.15;;
72201;SDS011;60105;54.956;73.412;2023-04-24T10:33:38;14.65;;;3.60;;
72201;SDS011;60105;54.956;73.412;2023-04-24T10:37:26;20.27;;;3.21;;
72201;SDS011;60105;54.956;73.412;2023-04-24T10:40:35;25.63;;;3.50;;
72201;SDS011;60105;54.956;73.412;2023-04-24T10:43:37;14.20;;;2.77;;
72201;SDS011;60105;54.956;73.412;2023-04-24T10:46:45;9.75;;;3.00;;
72201;SDS011;60105;54.956;73.412;2023-04-24T10:49:50;9.23;;;3.00;;
72201;SDS011;60105;54.956;73.412;2023-04-24T10:52:52;9.02;;;3.10;;
72201;SDS011;60105;54.956;73.412;2023-04-24T10:56:05;19.00;;;3.60;;
72201;SDS011;60105;54.956;73.412;2023-04-24T10:59:08;9.07;;;2.93;;
72201;SDS011;60105;54.956;73.412;2023-04-24T11:09:10;8.53;;;3.77;;
72201;SDS011;60105;54.956;73.412;2023-04-24T11:12:17;15.45;;;3.65;;
72201;SDS011;60105;54.956;73.412;2023-04-24T11:15:24;8.75;;;3.25;;
72201;SDS011;60105;54.956;73.412;2023-04-24T11:18:39;5.10;;;2.43;;
72201;SDS011;60105;54.956;73.412;2023-04-24T11:22:26;11.68;;;2.35;;
72201;SDS011;60105;54.956;73.412;2023-04-24T11:25:30;7.05;;;2.63;;
72201;SDS011;60105;54.956;73.412;2023-04-24T11:28:33;14.50;;;3.10;;
72201;SDS011;60105;54.956;73.412;2023-04-24T11:31:40;8.65;;;3.10;;
72201;SDS011;60105;54.956;73.412;2023-04-24T11:34:45;16.67;;;3.03;;
72201;SDS011;60105;54.956;73.412;2023-04-24T11:37:56;10.25;;;2.67;;
72201;SDS011;60105;54.956;73.412;2023-04-24T11:40:59;8.27;;;3.10;;
72201;SDS011;60105;54.956;73.412;2023-04-24T11:44:10;14.33;;;3.00;;
72201;SDS011;60105;54.956;73.412;2023-04-24T11:50:34;9.07;;;3.20;;
72201;SDS011;60105;54.956;73.412;2023-04-24T11:53:36;8.30;;;3.40;;
72201;SDS011;60105;54.956;73.412;2023-04-24T11:57:26;8.85;;;2.38;;
72201;SDS011;60105;54.956;73.412;2023-04-24T12:00:39;11.45;;;3.97;;
72201;SDS011;60105;54.956;73.412;2023-04-24T12:03:41;8.15;;;3.20;;
72201;SDS011;60105;54.956;73.412;2023-04-24T12:07:26;16.73;;;4.15;;
72201;SDS011;60105;54.956;73.412;2023-04-24T12:10:28;14.53;;;2.57;;
72201;SDS011;60105;54.956;73.412;2023-04-24T12:13:30;10.60;;;3.10;;
72201;SDS011;60105;54.956;73.412;2023-04-24T12:16:32;19.33;;;3.33;;
72201;SDS011;60105;54.956;73.412;2023-04-24T12:19:44;12.55;;;2.95;;
72201;SDS011;60105;54.956;73.412;2023-04-24T12:22:52;6.73;;;3.00;;
72201;SDS011;60105;54.956;73.412;2023-04-24T12:25:59;8.50;;;3.08;;
72201;SDS011;60105;54.956;73.412;2023-04-24T12:29:02;9.43;;;2.30;;
72201;SDS011;60105;54.956;73.412;2023-04-24T12:35:28;10.85;;;3.22;;
72201;SDS011;60105;54.956;73.412;2023-04-24T12:38:30;11.70;;;3.25;;
72201;SDS011;60105;54.956;73.412;2023-04-24T12:41:32;6.57;;;2.90;;
72201;SDS011;60105;54.956;73.412;2023-04-24T12:44:33;13.20;;;3.83;;
72201;SDS011;60105;54.956;73.412;2023-04-24T12:47:35;16.08;;;3.70;;
72201;SDS011;60105;54.956;73.412;2023-04-24T12:50:42;9.13;;;2.57;;
72201;SDS011;60105;54.956;73.412;2023-04-24T12:53:44;9.65;;;3.65;;
72201;SDS011;60105;54.956;73.412;2023-04-24T12:57:26;7.78;;;2.24;;
72201;SDS011;60105;54.956;73.412;2023-04-24T13:00:29;16.80;;;2.88;;
72201;SDS011;60105;54.956;73.412;2023-04-24T13:03:30;8.52;;;2.78;;
72201;SDS011;60105;54.956;73.412;2023-04-24T13:06:32;7.05;;;2.25;;
72201;SDS011;60105;54.956;73.412;2023-04-24T13:09:34;9.10;;;3.13;;
72201;SDS011;60105;54.956;73.412;2023-04-24T13:12:36;8.10;;;2.70;;
72201;SDS011;60105;54.956;73.412;2023-04-24T13:15:38;9.43;;;3.50;;
72201;SDS011;60105;54.956;73.412;2023-04-24T13:18:39;8.57;;;3.10;;
72201;SDS011;60105;54.956;73.412;2023-04-24T13:21:40;6.88;;;2.90;;
72201;SDS011;60105;54.956;73.412;2023-04-24T13:24:52;8.80;;;3.65;;
72201;SDS011;60105;54.956;73.412;2023-04-24T13:27:53;5.60;;;2.77;;
72201;SDS011;60105;54.956;73.412;2023-04-24T13:30:55;5.70;;;2.58;;
72201;SDS011;60105;54.956;73.412;2023-04-24T13:33:57;6.70;;;2.23;;
72201;SDS011;60105;54.956;73.412;2023-04-24T13:37:25;8.80;;;2.47;;
72201;SDS011;60105;54.956;73.412;2023-04-24T13:40:32;5.82;;;2.30;;
72201;SDS011;60105;54.956;73.412;2023-04-24T13:43:34;4.10;;;2.67;;
72201;SDS011;60105;54.956;73.412;2023-04-24T13:46:35;4.70;;;3.28;;
72201;SDS011;60105;54.956;73.412;2023-04-24T13:49:41;8.20;;;3.00;;
72201;SDS011;60105;54.956;73.412;2023-04-24T13:52:43;4.90;;;2.40;;
72201;SDS011;60105;54.956;73.412;2023-04-24T13:55:44;3.83;;;2.27;;
72201;SDS011;60105;54.956;73.412;2023-04-24T13:58:45;8.65;;;2.85;;
72201;SDS011;60105;54.956;73.412;2023-04-24T14:02:25;5.63;;;2.92;;
72201;SDS011;60105;54.956;73.412;2023-04-24T14:05:27;9.05;;;3.15;;
72201;SDS011;60105;54.956;73.412;2023-04-24T14:08:28;7.70;;;3.92;;
72201;SDS011;60105;54.956;73.412;2023-04-24T14:11:29;6.33;;;3.13;;
72201;SDS011;60105;54.956;73.412;2023-04-24T14:14:41;8.82;;;3.50;;
72201;SDS011;60105;54.956;73.412;2023-04-24T14:17:47;8.65;;;3.45;;
72201;SDS011;60105;54.956;73.412;2023-04-24T14:20:50;7.20;;;3.23;;
72201;SDS011;60105;54.956;73.412;2023-04-24T14:23:59;7.00;;;2.92;;
72201;SDS011;60105;54.956;73.412;2023-04-24T14:27:26;4.00;;;2.05;;
72201;SDS011;60105;54.956;73.412;2023-04-24T14:30:27;5.83;;;2.80;;
72201;SDS011;60105;54.956;73.412;2023-04-24T14:33:29;5.77;;;3.07;;
72201;SDS011;60105;54.956;73.412;2023-04-24T14:36:30;5.63;;;2.97;;
72201;SDS011;60105;54.956;73.412;2023-04-24T14:39:32;5.40;;;2.90;;
72201;SDS011;60105;54.956;73.412;2023-04-24T14:42:33;5.70;;;2.67;;
72201;SDS011;60105;54.956;73.412;2023-04-24T14:45:36;9.23;;;3.15;;
72201;SDS011;60105;54.956;73.412;2023-04-24T14:48:38;6.15;;;3.00;;
72201;SDS011;60105;54.956;73.412;2023-04-24T14:51:39;4.78;;;2.85;;
72201;SDS011;60105;54.956;73.412;2023-04-24T14:54:42;7.93;;;3.00;;
72201;SDS011;60105;54.956;73.412;2023-04-24T14:57:53;6.43;;;3.10;;
72201;SDS011;60105;54.956;73.412;2023-04-24T15:00:54;7.90;;;3.80;;
72201;SDS011;60105;54.956;73.412;2023-04-24T15:03:56;5.07;;;3.33;;
72201;SDS011;60105;54.956;73.412;2023-04-24T15:07:25;9.60;;;3.55;;
72201;SDS011;60105;54.956;73.412;2023-04-24T15:10:27;12.80;;;5.10;;
72201;SDS011;60105;54.956;73.412;2023-04-24T15:13:30;10.13;;;4.18;;
72201;SDS011;60105;54.956;73.412;2023-04-24T15:16:39;9.60;;;4.00;;
72201;SDS011;60105;54.956;73.412;2023-04-24T15:19:40;10.25;;;4.78;;
72201;SDS011;60105;54.956;73.412;2023-04-24T15:22:41;7.93;;;3.65;;
72201;SDS011;60105;54.956;73.412;2023-04-24T15:25:43;5.97;;;3.50;;
72201;SDS011;60105;54.956;73.412;2023-04-24T15:28:44;7.57;;;4.60;;
72201;SDS011;60105;54.956;73.412;2023-04-24T15:32:25;9.23;;;3.58;;
72201;SDS011;60105;54.956;73.412;2023-04-24T15:35:47;7.47;;;3.40;;
72201;SDS011;60105;54.956;73.412;2023-04-24T15:38:49;9.17;;;4.50;;
72201;SDS011;60105;54.956;73.412;2023-04-24T15:41:55;11.63;;;3.28;;
72201;SDS011;60105;54.956;73.412;2023-04-24T15:44:57;7.55;;;3.40;;
72201;SDS011;60105;54.956;73.412;2023-04-24T15:47:58;7.07;;;3.60;;
72201;SDS011;60105;54.956;73.412;2023-04-24T15:50:59;7.68;;;3.38;;
72201;SDS011;60105;54.956;73.412;2023-04-24T15:54:01;8.45;;;3.90;;
72201;SDS011;60105;54.956;73.412;2023-04-24T16:00:27;7.07;;;3.57;;
72201;SDS011;60105;54.956;73.412;2023-04-24T16:03:33;10.45;;;4.53;;
72201;SDS011;60105;54.956;73.412;2023-04-24T16:06:35;10.98;;;4.45;;
72201;SDS011;60105;54.956;73.412;2023-04-24T16:09:46;6.33;;;3.60;;
72201;SDS011;60105;54.956;73.412;2023-04-24T16:12:47;7.75;;;4.43;;
72201;SDS011;60105;54.956;73.412;2023-04-24T16:15:51;10.70;;;4.15;;
72201;SDS011;60105;54.956;73.412;2023-04-24T16:18:52;7.53;;;4.20;;
72201;SDS011;60105;54.956;73.412;2023-04-24T16:25:27;9.07;;;4.65;;
72201;SDS011;60105;54.956;73.412;2023-04-24T16:28:29;7.80;;;3.90;;
72201;SDS011;60105;54.956;73.412;2023-04-24T16:31:30;8.00;;;4.23;;
72201;SDS011;60105;54.956;73.412;2023-04-24T16:34:31;6.35;;;3.80;;
72201;SDS011;60105;54.956;73.412;2023-04-24T16:37:33;4.95;;;4.03;;
72201;SDS011;60105;54.956;73.412;2023-04-24T16:40:38;8.47;;;4.20;;
72201;SDS011;60105;54.956;73.412;2023-04-24T16:43:42;5.82;;;3.20;;
72201;SDS011;60105;54.956;73.412;2023-04-24T16:47:25;5.25;;;3.10;;
72201;SDS011;60105;54.956;73.412;2023-04-24T16:50:27;7.45;;;3.35;;
72201;SDS011;60105;54.956;73.412;2023-04-24T16:53:34;6.03;;;3.23;;
72201;SDS011;60105;54.956;73.412;2023-04-24T16:56:35;7.68;;;2.97;;
72201;SDS011;60105;54.956;73.412;2023-04-24T16:59:41;6.30;;;3.40;;
72201;SDS011;60105;54.956;73.412;2023-04-24T17:02:48;6.65;;;3.53;;
72201;SDS011;60105;54.956;73.412;2023-04-24T17:05:50;10.25;;;3.60;;
72201;SDS011;60105;54.956;73.412;2023-04-24T17:08:51;7.40;;;4.00;;
72201;SDS011;60105;54.956;73.412;2023-04-24T17:11:54;8.65;;;4.07;;
72201;SDS011;60105;54.956;73.412;2023-04-24T17:14:56;6.60;;;3.67;;
72201;SDS011;60105;54.956;73.412;2023-04-24T17:17:57;8.10;;;3.97;;
72201;SDS011;60105;54.956;73.412;2023-04-24T17:20:59;8.32;;;4.10;;
72201;SDS011;60105;54.956;73.412;2023-04-24T17:24:00;7.87;;;4.10;;
72201;SDS011;60105;54.956;73.412;2023-04-24T17:30:31;10.90;;;4.50;;
72201;SDS011;60105;54.956;73.412;2023-04-24T17:33:37;8.88;;;4.03;;
72201;SDS011;60105;54.956;73.412;2023-04-24T17:36:38;10.07;;;4.50;;
72201;SDS011;60105;54.956;73.412;2023-04-24T17:39:40;11.30;;;4.90;;
72201;SDS011;60105;54.956;73.412;2023-04-24T17:42:41;9.40;;;4.53;;
72201;SDS011;60105;54.956;73.412;2023-04-24T17:45:43;9.07;;;4.57;;
72201;SDS011;60105;54.956;73.412;2023-04-24T17:48:45;9.13;;;4.32;;
72201;SDS011;60105;54.956;73.412;2023-04-24T17:52:25;6.65;;;3.42;;
72201;SDS011;60105;54.956;73.412;2023-04-24T17:55:27;9.68;;;4.18;;
72201;SDS011;60105;54.956;73.412;2023-04-24T17:58:38;10.03;;;4.03;;
72201;SDS011;60105;54.956;73.412;2023-04-24T18:01:40;11.85;;;4.20;;
72201;SDS011;60105;54.956;73.412;2023-04-24T18:04:42;11.60;;;3.97;;
72201;SDS011;60105;54.956;73.412;2023-04-24T18:07:43;8.40;;;3.77;;
72201;SDS011;60105;54.956;73.412;2023-04-24T18:10:45;12.15;;;3.88;;
72201;SDS011;60105;54.956;73.412;2023-04-24T18:13:52;7.43;;;5.13;;
72201;SDS011;60105;54.956;73.412;2023-04-24T18:17:25;6.25;;;4.25;;
72201;SDS011;60105;54.956;73.412;2023-04-24T18:20:27;20.80;;;5.15;;
72201;SDS011;60105;54.956;73.412;2023-04-24T18:23:28;6.40;;;3.77;;
72201;SDS011;60105;54.956;73.412;2023-04-24T18:26:30;7.20;;;4.00;;
72201;SDS011;60105;54.956;73.412;2023-04-24T18:29:41;6.53;;;3.30;;
72201;SDS011;60105;54.956;73.412;2023-04-24T18:32:42;6.20;;;2.70;;
72201;SDS011;60105;54.956;73.412;2023-04-24T18:35:50;5.93;;;3.22;;
72201;SDS011;60105;54.956;73.412;2023-04-24T18:38:51;7.55;;;3.33;;
72201;SDS011;60105;54.956;73.412;2023-04-24T18:41:59;5.00;;;3.00;;
72201;SDS011;60105;54.956;73.412;2023-04-24T18:45:06;5.87;;;3.13;;
72201;SDS011;60105;54.956;73.412;2023-04-24T18:48:09;6.45;;;3.45;;
72201;SDS011;60105;54.956;73.412;2023-04-24T18:51:12;7.38;;;3.60;;
72201;SDS011;60105;54.956;73.412;2023-04-24T18:54:14;5.13;;;3.07;;
72201;SDS011;60105;54.956;73.412;2023-04-24T19:00:26;8.68;;;3.28;;
72201;SDS011;60105;54.956;73.412;2023-04-24T19:03:28;6.65;;;3.80;;
72201;SDS011;60105;54.956;73.412;2023-04-24T19:06:31;5.70;;;3.10;;
72201;SDS011;60105;54.956;73.412;2023-04-24T19:09:33;7.10;;;3.35;;
72201;SDS011;60105;54.956;73.412;2023-04-24T19:12:40;9.65;;;4.07;;
72201;SDS011;60105;54.956;73.412;2023-04-24T19:15:41;7.90;;;3.30;;
72201;SDS011;60105;54.956;73.412;2023-04-24T19:18:42;6.53;;;3.85;;